sensor_id;sensor_type;location;lat;lon;timestamp;pressure;altitude;pressure_sealevel;temperature;humidity
62978;BME280;49073;42.352;23.808;2023-12-28T00:01:06;95715.09;;;1.83;79.92
62978;BME280;49073;42.352;23.808;2023-12-28T00:04:06;95719.03;;;1.86;80.28
62978;BME280;49073;42.352;23.808;2023-12-28T00:07:08;95722.97;;;1.88;80.52
62978;BME280;49073;42.352;23.808;2023-12-28T00:10:08;95726.34;;;1.94;79.86
62978;BME280;49073;42.352;23.808;2023-12-28T00:13:09;95729.28;;;1.87;80.22
62978;BME280;49073;42.352;23.808;2023-12-28T00:16:10;95732.13;;;1.91;80.03
62978;BME280;49073;42.352;23.808;2023-12-28T00:19:11;95735.81;;;1.90;80.56
62978;BME280;49073;42.352;23.808;2023-12-28T00:22:12;95742.44;;;1.82;80.33
62978;BME280;49073;42.352;23.808;2023-12-28T00:25:14;95737.97;;;1.83;79.68
62978;BME280;49073;42.352;23.808;2023-12-28T00:28:14;95745.81;;;1.88;80.20
62978;BME280;49073;42.352;23.808;2023-12-28T00:31:15;95745.41;;;1.65;80.74
62978;BME280;49073;42.352;23.808;2023-12-28T00:34:15;95751.66;;;1.74;81.08
62978;BME280;49073;42.352;23.808;2023-12-28T00:37:16;95749.31;;;1.68;81.46
62978;BME280;49073;42.352;23.808;2023-12-28T00:40:16;95751.38;;;1.76;81.28
62978;BME280;49073;42.352;23.808;2023-12-28T00:43:17;95755.91;;;1.65;81.77
62978;BME280;49073;42.352;23.808;2023-12-28T00:46:18;95756.22;;;1.53;81.83
62978;BME280;49073;42.352;23.808;2023-12-28T00:49:18;95762.78;;;1.56;82.09
62978;BME280;49073;42.352;23.808;2023-12-28T00:52:19;95760.41;;;1.54;81.98
62978;BME280;49073;42.352;23.808;2023-12-28T00:55:20;95770.84;;;1.70;81.88
62978;BME280;49073;42.352;23.808;2023-12-28T00:58:20;95754.31;;;1.69;81.33
62978;BME280;49073;42.352;23.808;2023-12-28T01:01:21;95761.41;;;1.64;81.60
62978;BME280;49073;42.352;23.808;2023-12-28T01:04:22;95764.09;;;1.53;81.20
62978;BME280;49073;42.352;23.808;2023-12-28T01:07:23;95760.91;;;1.62;81.46
62978;BME280;49073;42.352;23.808;2023-12-28T01:10:24;95763.84;;;1.50;82.10
62978;BME280;49073;42.352;23.808;2023-12-28T01:13:24;95770.66;;;1.45;82.06
62978;BME280;49073;42.352;23.808;2023-12-28T01:16:25;95764.91;;;1.33;82.96
62978;BME280;49073;42.352;23.808;2023-12-28T01:19:26;95755.19;;;1.39;82.54
62978;BME280;49073;42.352;23.808;2023-12-28T01:22:26;95761.56;;;1.22;83.40
62978;BME280;49073;42.352;23.808;2023-12-28T01:25:27;95768.09;;;1.30;84.41
62978;BME280;49073;42.352;23.808;2023-12-28T01:28:28;95768.81;;;1.51;84.83
62978;BME280;49073;42.352;23.808;2023-12-28T01:31:29;95765.63;;;1.59;85.82
62978;BME280;49073;42.352;23.808;2023-12-28T01:34:29;95773.00;;;1.57;85.00
62978;BME280;49073;42.352;23.808;2023-12-28T01:37:30;95765.13;;;1.57;84.51
62978;BME280;49073;42.352;23.808;2023-12-28T01:40:34;95763.56;;;1.51;83.41
62978;BME280;49073;42.352;23.808;2023-12-28T01:43:35;95765.41;;;1.56;83.19
62978;BME280;49073;42.352;23.808;2023-12-28T01:46:35;95766.25;;;1.36;82.88
62978;BME280;49073;42.352;23.808;2023-12-28T01:49:36;95766.53;;;1.19;83.84
62978;BME280;49073;42.352;23.808;2023-12-28T01:52:37;95771.50;;;1.15;84.56
62978;BME280;49073;42.352;23.808;2023-12-28T01:55:38;95771.00;;;1.18;84.73
62978;BME280;49073;42.352;23.808;2023-12-28T01:58:40;95764.69;;;1.09;83.85
62978;BME280;49073;42.352;23.808;2023-12-28T02:01:42;95764.44;;;1.10;84.24
62978;BME280;49073;42.352;23.808;2023-12-28T02:04:43;95764.16;;;1.17;84.30
62978;BME280;49073;42.352;23.808;2023-12-28T02:07:44;95769.16;;;1.24;82.91
62978;BME280;49073;42.352;23.808;2023-12-28T02:10:45;95760.78;;;1.06;82.77
62978;BME280;49073;42.352;23.808;2023-12-28T02:13:46;95757.63;;;0.83;83.91
62978;BME280;49073;42.352;23.808;2023-12-28T02:17:06;95769.19;;;0.87;84.58
62978;BME280;49073;42.352;23.808;2023-12-28T02:20:10;95766.84;;;0.65;86.21
62978;BME280;49073;42.352;23.808;2023-12-28T02:23:11;95762.34;;;0.86;86.90
62978;BME280;49073;42.352;23.808;2023-12-28T02:26:13;95758.94;;;1.07;86.29
62978;BME280;49073;42.352;23.808;2023-12-28T02:29:13;95763.13;;;1.28;84.37
62978;BME280;49073;42.352;23.808;2023-12-28T02:32:16;95761.53;;;1.12;83.73
62978;BME280;49073;42.352;23.808;2023-12-28T02:38:30;95767.34;;;0.98;83.40
62978;BME280;49073;42.352;23.808;2023-12-28T02:41:33;95773.63;;;1.02;83.55
62978;BME280;49073;42.352;23.808;2023-12-28T02:44:34;95771.00;;;1.02;82.81
62978;BME280;49073;42.352;23.808;2023-12-28T02:47:34;95776.53;;;1.01;82.72
62978;BME280;49073;42.352;23.808;2023-12-28T02:50:35;95769.44;;;1.07;82.23
62978;BME280;49073;42.352;23.808;2023-12-28T02:53:36;95774.44;;;1.03;82.13
62978;BME280;49073;42.352;23.808;2023-12-28T02:56:36;95764.47;;;0.79;82.12
62978;BME280;49073;42.352;23.808;2023-12-28T02:59:37;95764.47;;;0.74;82.51
62978;BME280;49073;42.352;23.808;2023-12-28T03:02:38;95773.13;;;0.69;83.08
62978;BME280;49073;42.352;23.808;2023-12-28T03:05:38;95754.25;;;0.62;82.85
62978;BME280;49073;42.352;23.808;2023-12-28T03:08:39;95758.97;;;0.60;83.15
62978;BME280;49073;42.352;23.808;2023-12-28T03:11:39;95755.56;;;0.70;83.43
62978;BME280;49073;42.352;23.808;2023-12-28T03:14:40;95749.53;;;0.80;84.27
62978;BME280;49073;42.352;23.808;2023-12-28T03:17:40;95746.88;;;0.90;83.80
62978;BME280;49073;42.352;23.808;2023-12-28T03:20:41;95735.84;;;1.04;82.15
62978;BME280;49073;42.352;23.808;2023-12-28T03:23:41;95736.13;;;0.92;82.16
62978;BME280;49073;42.352;23.808;2023-12-28T03:26:42;95730.88;;;0.97;81.95
62978;BME280;49073;42.352;23.808;2023-12-28T03:29:43;95737.16;;;1.01;80.89
62978;BME280;49073;42.352;23.808;2023-12-28T03:32:43;95734.53;;;0.85;81.37
62978;BME280;49073;42.352;23.808;2023-12-28T03:35:44;95735.63;;;0.69;82.29
62978;BME280;49073;42.352;23.808;2023-12-28T03:38:45;95724.06;;;0.60;83.05
62978;BME280;49073;42.352;23.808;2023-12-28T03:41:47;95728.00;;;0.52;83.13
62978;BME280;49073;42.352;23.808;2023-12-28T03:44:48;95736.66;;;0.57;83.91
62978;BME280;49073;42.352;23.808;2023-12-28T03:47:48;95731.94;;;0.49;82.60
62978;BME280;49073;42.352;23.808;2023-12-28T03:50:51;95732.97;;;0.22;83.31
62978;BME280;49073;42.352;23.808;2023-12-28T03:53:52;95734.53;;;0.28;84.56
62978;BME280;49073;42.352;23.808;2023-12-28T03:56:52;95733.25;;;0.41;84.79
62978;BME280;49073;42.352;23.808;2023-12-28T03:59:54;95741.09;;;0.31;83.86
62978;BME280;49073;42.352;23.808;2023-12-28T04:02:55;95735.88;;;0.36;83.89
62978;BME280;49073;42.352;23.808;2023-12-28T04:05:58;95734.56;;;0.44;83.97
62978;BME280;49073;42.352;23.808;2023-12-28T04:08:59;95735.09;;;0.36;83.38
62978;BME280;49073;42.352;23.808;2023-12-28T04:11:59;95746.34;;;0.36;84.33
62978;BME280;49073;42.352;23.808;2023-12-28T04:15:00;95751.88;;;0.55;83.28
62978;BME280;49073;42.352;23.808;2023-12-28T04:18:01;95753.69;;;0.55;82.53
62978;BME280;49073;42.352;23.808;2023-12-28T04:21:01;95749.78;;;0.52;83.05
62978;BME280;49073;42.352;23.808;2023-12-28T04:24:02;95749.25;;;0.35;82.55
62978;BME280;49073;42.352;23.808;2023-12-28T04:27:03;95759.47;;;0.31;83.86
62978;BME280;49073;42.352;23.808;2023-12-28T04:30:04;95761.56;;;0.55;83.59
62978;BME280;49073;42.352;23.808;2023-12-28T04:33:05;95766.28;;;0.53;82.38
62978;BME280;49073;42.352;23.808;2023-12-28T04:36:06;95767.34;;;0.41;81.86
62978;BME280;49073;42.352;23.808;2023-12-28T04:39:07;95762.34;;;0.35;83.02
62978;BME280;49073;42.352;23.808;2023-12-28T04:42:08;95758.41;;;0.53;81.85
62978;BME280;49073;42.352;23.808;2023-12-28T04:45:09;95757.88;;;0.35;82.02
62978;BME280;49073;42.352;23.808;2023-12-28T04:48:12;95761.56;;;0.29;83.23
62978;BME280;49073;42.352;23.808;2023-12-28T04:51:13;95757.38;;;0.33;82.59
62978;BME280;49073;42.352;23.808;2023-12-28T04:54:14;95757.59;;;0.26;82.08
62978;BME280;49073;42.352;23.808;2023-12-28T04:57:15;95754.44;;;0.19;83.02
62978;BME280;49073;42.352;23.808;2023-12-28T05:00:15;95751.81;;;0.09;83.55
62978;BME280;49073;42.352;23.808;2023-12-28T05:03:16;95757.88;;;0.20;83.37
62978;BME280;49073;42.352;23.808;2023-12-28T05:06:16;95759.13;;;0.02;82.95
62978;BME280;49073;42.352;23.808;2023-12-28T05:09:17;95759.13;;;0.02;83.53
62978;BME280;49073;42.352;23.808;2023-12-28T05:12:18;95752.53;;;-0.11;83.98
62978;BME280;49073;42.352;23.808;2023-12-28T05:15:18;95753.59;;;-0.02;83.83
62978;BME280;49073;42.352;23.808;2023-12-28T05:18:20;95754.41;;;0.04;84.67
62978;BME280;49073;42.352;23.808;2023-12-28T05:21:20;95758.91;;;0.08;85.14
62978;BME280;49073;42.352;23.808;2023-12-28T05:24:21;95755.50;;;0.13;85.51
62978;BME280;49073;42.352;23.808;2023-12-28T05:27:22;95754.72;;;0.23;84.54
62978;BME280;49073;42.352;23.808;2023-12-28T05:30:22;95755.53;;;0.34;84.33
62978;BME280;49073;42.352;23.808;2023-12-28T05:33:26;95761.56;;;0.39;83.99
62978;BME280;49073;42.352;23.808;2023-12-28T05:36:27;95760.78;;;0.60;83.06
62978;BME280;49073;42.352;23.808;2023-12-28T05:39:27;95762.66;;;0.69;82.13
62978;BME280;49073;42.352;23.808;2023-12-28T05:42:28;95766.56;;;0.56;80.56
62978;BME280;49073;42.352;23.808;2023-12-28T05:45:28;95763.13;;;0.20;82.00
62978;BME280;49073;42.352;23.808;2023-12-28T05:48:29;95766.19;;;-0.04;83.07
62978;BME280;49073;42.352;23.808;2023-12-28T05:51:37;95766.22;;;0.01;83.19
62978;BME280;49073;42.352;23.808;2023-12-28T05:54:38;95770.66;;;0.01;83.12
62978;BME280;49073;42.352;23.808;2023-12-28T05:57:38;95774.84;;;-0.04;83.21
62978;BME280;49073;42.352;23.808;2023-12-28T06:00:39;95780.84;;;-0.08;82.91
62978;BME280;49073;42.352;23.808;2023-12-28T06:03:40;95787.63;;;-0.12;83.68
62978;BME280;49073;42.352;23.808;2023-12-28T06:06:40;95790.53;;;-0.14;84.56
62978;BME280;49073;42.352;23.808;2023-12-28T06:09:41;95784.56;;;0.01;83.69
62978;BME280;49073;42.352;23.808;2023-12-28T06:12:41;95786.88;;;-0.08;84.05
62978;BME280;49073;42.352;23.808;2023-12-28T06:15:42;95788.16;;;-0.16;84.10
62978;BME280;49073;42.352;23.808;2023-12-28T06:18:43;95788.97;;;-0.10;85.03
62978;BME280;49073;42.352;23.808;2023-12-28T06:21:44;95798.44;;;0.07;85.48
62978;BME280;49073;42.352;23.808;2023-12-28T06:24:45;95788.84;;;0.49;85.19
62978;BME280;49073;42.352;23.808;2023-12-28T06:27:46;95795.69;;;0.65;85.60
62978;BME280;49073;42.352;23.808;2023-12-28T06:30:46;95795.69;;;0.81;85.37
62978;BME280;49073;42.352;23.808;2023-12-28T06:33:46;95799.91;;;0.87;83.97
62978;BME280;49073;42.352;23.808;2023-12-28T06:36:47;95792.78;;;0.77;84.16
62978;BME280;49073;42.352;23.808;2023-12-28T06:39:48;95796.75;;;0.85;84.95
62978;BME280;49073;42.352;23.808;2023-12-28T06:42:48;95778.66;;;0.89;85.56
62978;BME280;49073;42.352;23.808;2023-12-28T06:45:48;95781.00;;;1.00;85.12
62978;BME280;49073;42.352;23.808;2023-12-28T06:48:49;95787.03;;;1.11;85.98
62978;BME280;49073;42.352;23.808;2023-12-28T06:51:50;95789.34;;;1.44;86.99
62978;BME280;49073;42.352;23.808;2023-12-28T06:54:51;95787.47;;;1.60;87.05
62978;BME280;49073;42.352;23.808;2023-12-28T06:57:53;95787.13;;;1.82;87.33
62978;BME280;49073;42.352;23.808;2023-12-28T07:00:53;95785.72;;;1.95;86.81
62978;BME280;49073;42.352;23.808;2023-12-28T07:03:57;95781.66;;;2.24;85.91
62978;BME280;49073;42.352;23.808;2023-12-28T07:06:59;95785.97;;;2.49;85.34
62978;BME280;49073;42.352;23.808;2023-12-28T07:10:00;95785.34;;;2.62;85.26
62978;BME280;49073;42.352;23.808;2023-12-28T07:13:01;95790.28;;;2.74;84.91
62978;BME280;49073;42.352;23.808;2023-12-28T07:16:01;95786.53;;;2.81;83.92
62978;BME280;49073;42.352;23.808;2023-12-28T07:19:02;95788.84;;;2.93;83.17
62978;BME280;49073;42.352;23.808;2023-12-28T07:22:03;95791.38;;;3.03;82.77
62978;BME280;49073;42.352;23.808;2023-12-28T07:25:05;95790.47;;;3.18;81.92
62978;BME280;49073;42.352;23.808;2023-12-28T07:28:06;95787.63;;;3.39;81.15
62978;BME280;49073;42.352;23.808;2023-12-28T07:31:06;95783.72;;;3.36;80.57
62978;BME280;49073;42.352;23.808;2023-12-28T07:34:07;95788.53;;;3.53;80.05
62978;BME280;49073;42.352;23.808;2023-12-28T07:37:08;95790.84;;;3.60;80.74
62978;BME280;49073;42.352;23.808;2023-12-28T07:40:08;95795.22;;;3.70;80.43
62978;BME280;49073;42.352;23.808;2023-12-28T07:43:09;95797.19;;;3.83;80.94
62978;BME280;49073;42.352;23.808;2023-12-28T07:46:09;95788.13;;;3.89;81.03
62978;BME280;49073;42.352;23.808;2023-12-28T07:49:10;95788.94;;;4.09;81.06
62978;BME280;49073;42.352;23.808;2023-12-28T07:52:11;95794.13;;;4.19;81.12
62978;BME280;49073;42.352;23.808;2023-12-28T07:55:11;95791.53;;;4.33;80.56
62978;BME280;49073;42.352;23.808;2023-12-28T07:58:12;95799.03;;;4.45;78.66
62978;BME280;49073;42.352;23.808;2023-12-28T08:01:12;95789.63;;;4.58;79.31
62978;BME280;49073;42.352;23.808;2023-12-28T08:04:13;95797.81;;;4.76;78.95
62978;BME280;49073;42.352;23.808;2023-12-28T08:07:13;95805.00;;;4.89;77.72
62978;BME280;49073;42.352;23.808;2023-12-28T08:10:14;95802.28;;;4.94;77.14
62978;BME280;49073;42.352;23.808;2023-12-28T08:13:15;95808.91;;;5.11;76.45
62978;BME280;49073;42.352;23.808;2023-12-28T08:16:15;95807.25;;;5.29;75.99
62978;BME280;49073;42.352;23.808;2023-12-28T08:19:16;95804.78;;;5.52;76.04
62978;BME280;49073;42.352;23.808;2023-12-28T08:22:17;95807.53;;;5.75;74.64
62978;BME280;49073;42.352;23.808;2023-12-28T08:25:17;95806.75;;;6.02;72.98
62978;BME280;49073;42.352;23.808;2023-12-28T08:28:18;95799.53;;;6.08;71.71
62978;BME280;49073;42.352;23.808;2023-12-28T08:31:19;95788.47;;;6.43;70.87
62978;BME280;49073;42.352;23.808;2023-12-28T08:34:19;95790.38;;;6.65;68.79
62978;BME280;49073;42.352;23.808;2023-12-28T08:37:20;95799.97;;;6.97;69.07
62978;BME280;49073;42.352;23.808;2023-12-28T08:40:20;95786.59;;;7.03;68.70
62978;BME280;49073;42.352;23.808;2023-12-28T08:43:21;95783.34;;;7.06;66.45
62978;BME280;49073;42.352;23.808;2023-12-28T08:46:22;95781.13;;;7.31;66.16
62978;BME280;49073;42.352;23.808;2023-12-28T08:49:24;95772.94;;;7.50;63.85
62978;BME280;49073;42.352;23.808;2023-12-28T08:52:25;95776.47;;;7.68;64.22
62978;BME280;49073;42.352;23.808;2023-12-28T08:55:26;95774.06;;;8.07;63.58
62978;BME280;49073;42.352;23.808;2023-12-28T08:58:26;95764.63;;;8.50;61.58
62978;BME280;49073;42.352;23.808;2023-12-28T09:01:27;95765.41;;;8.77;59.38
62978;BME280;49073;42.352;23.808;2023-12-28T09:04:29;95757.28;;;8.91;58.41
62978;BME280;49073;42.352;23.808;2023-12-28T09:07:30;95763.19;;;9.05;57.10
62978;BME280;49073;42.352;23.808;2023-12-28T09:10:30;95748.25;;;9.30;57.22
62978;BME280;49073;42.352;23.808;2023-12-28T09:13:31;95747.28;;;9.35;54.86
62978;BME280;49073;42.352;23.808;2023-12-28T09:16:31;95739.91;;;9.50;54.42
62978;BME280;49073;42.352;23.808;2023-12-28T09:19:32;95730.19;;;9.54;51.04
62978;BME280;49073;42.352;23.808;2023-12-28T09:22:32;95718.03;;;9.74;51.96
62978;BME280;49073;42.352;23.808;2023-12-28T09:25:33;95713.81;;;9.94;53.31
62978;BME280;49073;42.352;23.808;2023-12-28T09:28:34;95699.78;;;10.15;50.63
62978;BME280;49073;42.352;23.808;2023-12-28T09:31:35;95712.13;;;10.41;49.08
62978;BME280;49073;42.352;23.808;2023-12-28T09:34:35;95699.50;;;10.29;47.99
62978;BME280;49073;42.352;23.808;2023-12-28T09:37:36;95685.72;;;10.48;47.73
62978;BME280;49073;42.352;23.808;2023-12-28T09:40:36;95685.59;;;10.66;46.57
62978;BME280;49073;42.352;23.808;2023-12-28T09:43:45;95681.50;;;10.81;45.47
62978;BME280;49073;42.352;23.808;2023-12-28T09:46:49;95672.78;;;11.05;45.52
62978;BME280;49073;42.352;23.808;2023-12-28T09:49:50;95658.47;;;11.22;44.34
62978;BME280;49073;42.352;23.808;2023-12-28T09:52:51;95657.28;;;11.32;43.08
62978;BME280;49073;42.352;23.808;2023-12-28T09:55:52;95643.69;;;11.37;41.66
62978;BME280;49073;42.352;23.808;2023-12-28T09:58:53;95648.03;;;11.42;40.19
62978;BME280;49073;42.352;23.808;2023-12-28T10:01:55;95647.78;;;11.72;40.15
62978;BME280;49073;42.352;23.808;2023-12-28T10:04:56;95634.75;;;11.70;42.15
62978;BME280;49073;42.352;23.808;2023-12-28T10:07:57;95635.88;;;11.69;41.96
62978;BME280;49073;42.352;23.808;2023-12-28T10:10:59;95637.44;;;11.83;41.78
62978;BME280;49073;42.352;23.808;2023-12-28T10:14:01;95630.06;;;11.92;41.46
62978;BME280;49073;42.352;23.808;2023-12-28T10:17:02;95619.38;;;12.04;42.02
62978;BME280;49073;42.352;23.808;2023-12-28T10:20:03;95616.56;;;12.13;40.15
62978;BME280;49073;42.352;23.808;2023-12-28T10:23:06;95608.19;;;12.15;39.34
62978;BME280;49073;42.352;23.808;2023-12-28T10:26:07;95618.94;;;12.31;40.25
62978;BME280;49073;42.352;23.808;2023-12-28T10:29:08;95610.56;;;12.32;40.28
62978;BME280;49073;42.352;23.808;2023-12-28T10:32:09;95605.97;;;12.17;40.95
62978;BME280;49073;42.352;23.808;2023-12-28T10:35:09;95603.88;;;12.39;40.84
62978;BME280;49073;42.352;23.808;2023-12-28T10:38:13;95601.69;;;12.28;40.28
62978;BME280;49073;42.352;23.808;2023-12-28T10:41:17;95591.47;;;12.18;41.36
62978;BME280;49073;42.352;23.808;2023-12-28T10:44:20;95575.78;;;12.45;41.09
62978;BME280;49073;42.352;23.808;2023-12-28T10:47:25;95579.66;;;12.47;40.87
62978;BME280;49073;42.352;23.808;2023-12-28T10:50:30;95576.41;;;12.70;39.63
62978;BME280;49073;42.352;23.808;2023-12-28T10:53:51;95565.97;;;12.81;40.21
62978;BME280;49073;42.352;23.808;2023-12-28T10:57:15;95558.63;;;12.78;39.57
62978;BME280;49073;42.352;23.808;2023-12-28T11:00:21;95559.06;;;12.80;38.32
62978;BME280;49073;42.352;23.808;2023-12-28T11:03:27;95555.69;;;12.83;39.21
62978;BME280;49073;42.352;23.808;2023-12-28T11:06:30;95551.03;;;12.80;37.82
62978;BME280;49073;42.352;23.808;2023-12-28T11:09:31;95543.88;;;12.84;37.95
62978;BME280;49073;42.352;23.808;2023-12-28T11:12:34;95544.56;;;12.97;38.04
62978;BME280;49073;42.352;23.808;2023-12-28T11:15:37;95545.41;;;13.17;39.11
62978;BME280;49073;42.352;23.808;2023-12-28T11:18:38;95538.66;;;13.23;39.84
62978;BME280;49073;42.352;23.808;2023-12-28T11:21:40;95534.81;;;13.05;40.49
62978;BME280;49073;42.352;23.808;2023-12-28T11:24:41;95522.06;;;13.18;41.17
62978;BME280;49073;42.352;23.808;2023-12-28T11:27:41;95517.38;;;13.47;40.76
62978;BME280;49073;42.352;23.808;2023-12-28T11:30:42;95511.19;;;13.27;39.95
62978;BME280;49073;42.352;23.808;2023-12-28T11:33:47;95504.47;;;13.52;39.90
62978;BME280;49073;42.352;23.808;2023-12-28T11:36:53;95491.09;;;13.52;39.99
62978;BME280;49073;42.352;23.808;2023-12-28T11:39:55;95490.66;;;13.50;38.93
62978;BME280;49073;42.352;23.808;2023-12-28T11:42:58;95481.38;;;13.44;39.56
62978;BME280;49073;42.352;23.808;2023-12-28T11:46:00;95476.97;;;13.36;39.93
62978;BME280;49073;42.352;23.808;2023-12-28T11:49:07;95475.81;;;13.53;40.19
62978;BME280;49073;42.352;23.808;2023-12-28T11:52:09;95466.88;;;13.65;39.64
62978;BME280;49073;42.352;23.808;2023-12-28T11:55:11;95464.88;;;13.81;40.41
62978;BME280;49073;42.352;23.808;2023-12-28T11:58:11;95468.88;;;13.91;40.52
62978;BME280;49073;42.352;23.808;2023-12-28T12:01:13;95466.06;;;13.84;40.85
62978;BME280;49073;42.352;23.808;2023-12-28T12:04:14;95468.22;;;13.98;41.22
62978;BME280;49073;42.352;23.808;2023-12-28T12:07:14;95466.63;;;13.93;41.21
62978;BME280;49073;42.352;23.808;2023-12-28T12:10:15;95466.22;;;13.91;41.77
62978;BME280;49073;42.352;23.808;2023-12-28T12:13:16;95460.28;;;13.82;40.80
62978;BME280;49073;42.352;23.808;2023-12-28T12:16:19;95451.91;;;13.84;41.31
62978;BME280;49073;42.352;23.808;2023-12-28T12:19:19;95454.00;;;13.94;41.21
62978;BME280;49073;42.352;23.808;2023-12-28T12:22:20;95463.81;;;13.86;41.19
62978;BME280;49073;42.352;23.808;2023-12-28T12:25:22;95455.06;;;13.89;41.27
62978;BME280;49073;42.352;23.808;2023-12-28T12:28:23;95458.81;;;13.85;41.55
62978;BME280;49073;42.352;23.808;2023-12-28T12:31:24;95454.41;;;13.96;41.42
62978;BME280;49073;42.352;23.808;2023-12-28T12:34:26;95451.44;;;14.01;41.90
62978;BME280;49073;42.352;23.808;2023-12-28T12:37:27;95441.31;;;13.91;41.04
62978;BME280;49073;42.352;23.808;2023-12-28T12:40:27;95452.06;;;13.71;39.83
62978;BME280;49073;42.352;23.808;2023-12-28T12:43:28;95447.63;;;13.59;40.19
62978;BME280;49073;42.352;23.808;2023-12-28T12:46:30;95444.44;;;13.53;40.13
62978;BME280;49073;42.352;23.808;2023-12-28T12:49:30;95446.56;;;13.44;40.27
62978;BME280;49073;42.352;23.808;2023-12-28T12:52:31;95445.56;;;13.52;39.96
62978;BME280;49073;42.352;23.808;2023-12-28T12:55:32;95436.16;;;13.59;40.68
62978;BME280;49073;42.352;23.808;2023-12-28T12:58:32;95443.88;;;13.44;39.78
62978;BME280;49073;42.352;23.808;2023-12-28T13:01:34;95434.84;;;13.52;40.26
62978;BME280;49073;42.352;23.808;2023-12-28T13:04:38;95426.59;;;13.42;39.82
62978;BME280;49073;42.352;23.808;2023-12-28T13:07:38;95433.78;;;13.37;39.97
62978;BME280;49073;42.352;23.808;2023-12-28T13:10:40;95433.72;;;13.34;39.17
62978;BME280;49073;42.352;23.808;2023-12-28T13:13:41;95452.94;;;13.39;39.78
62978;BME280;49073;42.352;23.808;2023-12-28T13:16:41;95438.91;;;13.27;40.98
62978;BME280;49073;42.352;23.808;2023-12-28T13:19:42;95439.63;;;13.23;40.79
62978;BME280;49073;42.352;23.808;2023-12-28T13:22:42;95443.28;;;13.15;41.27
62978;BME280;49073;42.352;23.808;2023-12-28T13:25:43;95457.78;;;13.14;42.44
62978;BME280;49073;42.352;23.808;2023-12-28T13:28:44;95450.06;;;12.93;41.31
62978;BME280;49073;42.352;23.808;2023-12-28T13:31:46;95449.97;;;12.89;40.70
62978;BME280;49073;42.352;23.808;2023-12-28T13:34:50;95448.38;;;12.85;40.58
62978;BME280;49073;42.352;23.808;2023-12-28T13:37:51;95450.47;;;12.75;41.17
62978;BME280;49073;42.352;23.808;2023-12-28T13:40:51;95461.34;;;12.66;41.46
62978;BME280;49073;42.352;23.808;2023-12-28T13:43:52;95449.34;;;12.60;41.83
62978;BME280;49073;42.352;23.808;2023-12-28T13:47:03;95446.75;;;12.64;42.25
62978;BME280;49073;42.352;23.808;2023-12-28T13:50:06;95451.75;;;12.49;41.76
62978;BME280;49073;42.352;23.808;2023-12-28T13:53:07;95446.34;;;12.46;42.00
62978;BME280;49073;42.352;23.808;2023-12-28T13:56:08;95456.63;;;12.44;42.60
62978;BME280;49073;42.352;23.808;2023-12-28T13:59:09;95457.03;;;12.30;43.42
62978;BME280;49073;42.352;23.808;2023-12-28T14:02:09;95464.16;;;12.10;43.92
62978;BME280;49073;42.352;23.808;2023-12-28T14:05:10;95454.97;;;11.94;44.32
62978;BME280;49073;42.352;23.808;2023-12-28T14:08:11;95454.72;;;11.84;45.34
62978;BME280;49073;42.352;23.808;2023-12-28T14:11:11;95465.28;;;11.80;45.14
62978;BME280;49073;42.352;23.808;2023-12-28T14:14:12;95464.44;;;11.76;45.14
62978;BME280;49073;42.352;23.808;2023-12-28T14:17:13;95471.19;;;11.57;45.59
62978;BME280;49073;42.352;23.808;2023-12-28T14:20:15;95472.47;;;11.35;46.10
62978;BME280;49073;42.352;23.808;2023-12-28T14:23:17;95466.47;;;11.38;45.67
62978;BME280;49073;42.352;23.808;2023-12-28T14:26:21;95467.38;;;11.30;45.90
62978;BME280;49073;42.352;23.808;2023-12-28T14:29:22;95459.59;;;11.25;45.84
62978;BME280;49073;42.352;23.808;2023-12-28T14:32:23;95460.72;;;11.11;46.41
62978;BME280;49073;42.352;23.808;2023-12-28T14:35:24;95454.06;;;11.05;46.57
62978;BME280;49073;42.352;23.808;2023-12-28T14:38:25;95462.44;;;11.03;47.03
62978;BME280;49073;42.352;23.808;2023-12-28T14:41:26;95461.53;;;10.87;47.22
62978;BME280;49073;42.352;23.808;2023-12-28T14:44:29;95459.91;;;10.82;48.46
62978;BME280;49073;42.352;23.808;2023-12-28T14:47:30;95460.59;;;10.67;49.48
62978;BME280;49073;42.352;23.808;2023-12-28T14:50:30;95461.00;;;10.44;49.13
62978;BME280;49073;42.352;23.808;2023-12-28T14:53:31;95458.41;;;10.23;49.75
62978;BME280;49073;42.352;23.808;2023-12-28T14:56:32;95455.81;;;10.01;50.43
62978;BME280;49073;42.352;23.808;2023-12-28T14:59:32;95463.97;;;9.84;50.80
62978;BME280;49073;42.352;23.808;2023-12-28T15:02:33;95458.13;;;9.57;51.33
62978;BME280;49073;42.352;23.808;2023-12-28T15:05:34;95453.59;;;8.94;53.24
62978;BME280;49073;42.352;23.808;2023-12-28T15:08:34;95451.88;;;8.68;54.48
62978;BME280;49073;42.352;23.808;2023-12-28T15:11:35;95455.06;;;8.52;55.15
62978;BME280;49073;42.352;23.808;2023-12-28T15:14:37;95454.50;;;8.38;55.73
62978;BME280;49073;42.352;23.808;2023-12-28T15:17:38;95456.28;;;8.16;55.80
62978;BME280;49073;42.352;23.808;2023-12-28T15:20:38;95458.34;;;8.01;56.55
62978;BME280;49073;42.352;23.808;2023-12-28T15:23:39;95462.56;;;7.94;57.33
62978;BME280;49073;42.352;23.808;2023-12-28T15:26:41;95458.75;;;7.74;57.81
62978;BME280;49073;42.352;23.808;2023-12-28T15:29:42;95458.13;;;7.41;59.20
62978;BME280;49073;42.352;23.808;2023-12-28T15:32:42;95463.75;;;7.05;61.00
62978;BME280;49073;42.352;23.808;2023-12-28T15:35:43;95464.66;;;6.91;60.29
62978;BME280;49073;42.352;23.808;2023-12-28T15:38:44;95471.13;;;6.59;61.27
62978;BME280;49073;42.352;23.808;2023-12-28T15:41:44;95472.97;;;6.49;62.32
62978;BME280;49073;42.352;23.808;2023-12-28T15:44:46;95469.63;;;6.35;62.78
62978;BME280;49073;42.352;23.808;2023-12-28T15:47:47;95474.72;;;6.22;63.10
62978;BME280;49073;42.352;23.808;2023-12-28T15:50:48;95472.88;;;6.00;63.47
62978;BME280;49073;42.352;23.808;2023-12-28T15:53:48;95476.75;;;5.94;63.62
62978;BME280;49073;42.352;23.808;2023-12-28T15:56:49;95483.03;;;5.75;64.80
62978;BME280;49073;42.352;23.808;2023-12-28T15:59:50;95484.09;;;5.74;66.06